KONA/ONA METAR and TAF weather

Enter ICAO airport designator
Station Type Date Time Source
KONA METAR 2021/02/25 16:35 UTC NOAA

KONA 251635Z AUTO 29004KT 10SM CLR 01/M03 A3034 RMK AO2


Station Type Date Time Source
KONA Decoded METAR 2021/02/25 16:35 UTC NOAA

Winona, Winona Municipal Airport-Max Conrad Field, MN, United States (KONA) 44-05N 091-42W
Feb 25, 2021 - 11:35 AM EST / 2021.02.25 1635 UTC
Wind: from the WNW (290 degrees) at 5 MPH (4 KT):0
Visibility: 10 mile(s):0
Sky conditions: clear
Temperature: 33 F (1 C)
Windchill: 28 F (-2 C):1
Dew Point: 26 F (-3 C)
Relative Humidity: 74%
Pressure (altimeter): 30.34 in. Hg (1027 hPa)
ob: KONA 251635Z AUTO 29004KT 10SM CLR 01/M03 A3034 RMK AO2
cycle: 16

Station Type Date Time Source
KONA TAF UTC NOAA

Error!

Example: see airport list